createdAt,value
2018-08-28T00:01:01.820Z,2.57
2018-08-28T00:03:29.504Z,3.70
2018-08-28T00:05:57.285Z,3.00
2018-08-28T00:08:25.292Z,3.13
2018-08-28T00:10:52.985Z,2.77
2018-08-28T00:13:20.667Z,3.03
2018-08-28T00:15:48.747Z,2.40
2018-08-28T00:18:16.462Z,2.40
2018-08-28T00:20:44.149Z,2.20
2018-08-28T00:23:12.121Z,2.50
2018-08-28T00:25:39.801Z,2.20
2018-08-28T00:28:07.488Z,2.30
2018-08-28T00:30:35.565Z,2.63
2018-08-28T00:33:03.283Z,2.07
2018-08-28T00:35:31.126Z,2.07
2018-08-28T00:37:59.179Z,2.47
2018-08-28T00:40:26.907Z,2.37
2018-08-28T00:42:54.859Z,2.20
2018-08-28T00:45:22.854Z,2.50
2018-08-28T00:47:50.537Z,2.40
2018-08-28T00:50:18.202Z,2.40
2018-08-28T00:52:46.162Z,2.10
2018-08-28T00:55:13.835Z,2.17
2018-08-28T00:57:41.540Z,2.50
2018-08-28T01:00:09.536Z,2.87
2018-08-28T01:02:37.204Z,2.70
2018-08-28T01:05:05.040Z,5.00
2018-08-28T01:07:33.002Z,5.57
2018-08-28T01:10:00.666Z,3.27
2018-08-28T01:12:28.387Z,2.90
2018-08-28T01:14:56.369Z,3.23
2018-08-28T01:17:24.065Z,3.60
2018-08-28T01:19:51.727Z,3.87
2018-08-28T01:22:19.843Z,5.50
2018-08-28T01:24:47.540Z,6.70
2018-08-28T01:27:15.234Z,5.83
2018-08-28T01:29:43.242Z,7.27
2018-08-28T01:32:10.933Z,7.90
2018-08-28T01:34:38.639Z,6.13
2018-08-28T01:37:06.699Z,7.67
2018-08-28T01:39:34.473Z,6.10
2018-08-28T01:42:02.255Z,6.80
2018-08-28T01:44:30.375Z,5.50
2018-08-28T01:46:58.135Z,5.13
2018-08-28T01:49:25.801Z,6.07
2018-08-28T01:51:53.884Z,5.37
2018-08-28T01:54:21.572Z,5.77
2018-08-28T01:56:49.249Z,5.47
2018-08-28T01:59:17.301Z,5.73
2018-08-28T02:01:45.014Z,7.37
2018-08-28T02:04:12.694Z,7.43
2018-08-28T02:06:40.688Z,8.17
2018-08-28T02:09:08.382Z,9.37
2018-08-28T02:11:36.104Z,8.97
2018-08-28T02:14:04.117Z,10.07
2018-08-28T02:16:31.861Z,9.93
2018-08-28T02:19:00.034Z,9.73
2018-08-28T02:21:28.045Z,9.27
2018-08-28T02:23:55.780Z,9.67
2018-08-28T02:26:23.602Z,10.00
2018-08-28T02:28:51.584Z,9.00
2018-08-28T02:31:19.260Z,8.37
2018-08-28T02:33:47.078Z,9.13
2018-08-28T02:36:15.120Z,8.40
2018-08-28T02:38:42.810Z,9.67
2018-08-28T02:41:10.503Z,10.50
2018-08-28T02:43:38.570Z,9.60
2018-08-28T02:46:06.259Z,10.17
2018-08-28T02:48:33.945Z,10.07
2018-08-28T02:51:01.974Z,9.20
2018-08-28T02:53:29.662Z,10.20
2018-08-28T02:55:57.330Z,9.37
2018-08-28T02:58:25.303Z,8.33
2018-08-28T03:00:52.982Z,8.83
2018-08-28T03:03:20.686Z,7.83
2018-08-28T03:05:48.486Z,8.23
2018-08-28T03:08:16.190Z,8.33
2018-08-28T03:10:43.919Z,8.37
2018-08-28T03:13:11.720Z,7.17
2018-08-28T03:15:39.527Z,7.00
2018-08-28T03:18:07.175Z,7.27
2018-08-28T03:20:34.995Z,6.33
2018-08-28T03:23:02.997Z,6.37
2018-08-28T03:25:30.683Z,7.00
2018-08-28T03:27:58.464Z,7.43
2018-08-28T03:30:26.152Z,6.97
2018-08-28T03:32:53.829Z,7.30
2018-08-28T03:35:21.635Z,7.30
2018-08-28T03:37:49.316Z,7.20
2018-08-28T03:40:17.011Z,5.87
2018-08-28T03:42:44.815Z,6.53
2018-08-28T03:45:12.497Z,6.67
2018-08-28T03:47:40.198Z,5.73
2018-08-28T03:50:08.009Z,6.17
2018-08-28T03:52:35.683Z,6.73
2018-08-28T03:55:03.427Z,6.30
2018-08-28T03:57:31.232Z,6.43
2018-08-28T03:59:58.917Z,6.50
2018-08-28T04:02:26.654Z,7.10
2018-08-28T04:04:54.517Z,6.23
2018-08-28T04:07:22.186Z,6.87
2018-08-28T04:09:49.852Z,6.33
2018-08-28T04:12:17.625Z,6.03
2018-08-28T04:14:45.323Z,6.13
2018-08-28T04:17:13.091Z,6.53
2018-08-28T04:19:40.827Z,5.50
2018-08-28T04:22:08.535Z,5.17
2018-08-28T04:24:36.194Z,4.73
2018-08-28T04:27:04.009Z,5.07
2018-08-28T04:29:31.698Z,5.33
2018-08-28T04:31:59.360Z,4.73
2018-08-28T04:34:27.151Z,5.63
2018-08-28T04:36:54.870Z,5.83
2018-08-28T04:39:22.538Z,5.43
2018-08-28T04:41:50.366Z,5.70
2018-08-28T04:44:18.116Z,5.20
2018-08-28T04:46:45.788Z,6.67
2018-08-28T04:49:13.605Z,5.30
2018-08-28T04:51:41.347Z,7.20
2018-08-28T04:54:09.036Z,7.00
2018-08-28T04:56:36.861Z,6.47
2018-08-28T04:59:04.647Z,7.00
2018-08-28T05:01:32.326Z,7.17
2018-08-28T05:04:00.114Z,6.80
2018-08-28T05:06:27.810Z,7.83
2018-08-28T05:08:55.479Z,7.37
2018-08-28T05:11:23.271Z,7.73
2018-08-28T05:13:50.965Z,7.87
2018-08-28T05:16:18.654Z,8.40
2018-08-28T05:18:46.469Z,8.77
2018-08-28T05:21:14.179Z,8.03
2018-08-28T05:23:41.838Z,7.83
2018-08-28T05:26:09.606Z,7.37
2018-08-28T05:28:37.384Z,7.33
2018-08-28T05:31:05.294Z,7.17
2018-08-28T05:33:33.093Z,6.10
2018-08-28T05:36:00.815Z,7.30
2018-08-28T05:38:28.552Z,6.13
2018-08-28T05:40:56.377Z,6.30
2018-08-28T05:43:24.038Z,6.57
2018-08-28T05:45:51.733Z,5.83
2018-08-28T05:48:19.540Z,6.23
2018-08-28T05:50:47.220Z,6.67
2018-08-28T05:53:14.872Z,6.77
2018-08-28T05:55:42.716Z,6.80
2018-08-28T05:58:10.358Z,7.87
2018-08-28T06:00:38.082Z,8.20
2018-08-28T06:03:06.179Z,7.60
2018-08-28T06:05:33.803Z,6.93
2018-08-28T06:08:01.571Z,6.73
2018-08-28T06:10:29.577Z,7.87
2018-08-28T06:12:57.296Z,7.43
2018-08-28T06:15:25.012Z,7.60
2018-08-28T06:17:52.984Z,7.83
2018-08-28T06:20:20.677Z,7.97
2018-08-28T06:22:48.345Z,7.70
2018-08-28T06:25:16.350Z,8.13
2018-08-28T06:27:44.030Z,7.23
2018-08-28T06:30:11.752Z,6.73
2018-08-28T06:32:39.599Z,6.23
2018-08-28T06:35:07.266Z,6.27
2018-08-28T06:37:34.941Z,6.90
2018-08-28T06:40:02.856Z,6.93
2018-08-28T06:42:30.521Z,6.63
2018-08-28T06:44:58.194Z,7.03
2018-08-28T06:47:26.146Z,7.73
2018-08-28T06:49:53.836Z,7.13
2018-08-28T06:52:21.509Z,7.10
2018-08-28T06:54:49.355Z,8.23
2018-08-28T06:57:17.078Z,7.50
2018-08-28T06:59:44.772Z,6.97
2018-08-28T07:02:12.662Z,6.53
2018-08-28T07:04:40.398Z,7.57
2018-08-28T07:07:08.464Z,6.33
2018-08-28T07:09:36.340Z,7.73
2018-08-28T07:12:04.056Z,9.10
2018-08-28T07:14:31.749Z,8.80
2018-08-28T07:16:59.607Z,8.57
2018-08-28T07:19:27.263Z,8.63
2018-08-28T07:21:54.926Z,6.90
2018-08-28T07:24:22.748Z,6.50
2018-08-28T07:26:50.438Z,7.67
2018-08-28T07:29:18.104Z,7.43
2018-08-28T07:31:45.973Z,7.87
2018-08-28T07:34:13.649Z,8.17
2018-08-28T07:36:41.291Z,7.83
2018-08-28T07:39:09.149Z,8.33
2018-08-28T07:41:36.787Z,7.33
2018-08-28T07:44:04.606Z,7.33
2018-08-28T07:46:33.322Z,6.37
2018-08-28T07:49:00.969Z,6.60
2018-08-28T07:51:28.648Z,6.57
2018-08-28T07:53:56.539Z,6.67
2018-08-28T07:56:24.160Z,6.23
2018-08-28T07:58:51.845Z,7.00
2018-08-28T08:01:19.756Z,7.43
2018-08-28T08:03:47.358Z,8.83
2018-08-28T08:06:15.004Z,9.63
2018-08-28T08:08:42.833Z,16.67
2018-08-28T08:11:10.496Z,10.07
2018-08-28T08:13:38.152Z,9.40
2018-08-28T08:16:06.100Z,11.80
2018-08-28T08:18:33.785Z,11.10
2018-08-28T08:21:01.454Z,13.17
2018-08-28T08:23:29.302Z,15.10
2018-08-28T08:25:56.986Z,14.17
2018-08-28T08:28:24.737Z,15.47
2018-08-28T08:30:52.468Z,15.33
2018-08-28T08:33:20.126Z,12.53
2018-08-28T08:35:47.774Z,12.20
2018-08-28T08:38:15.538Z,12.87
2018-08-28T08:40:43.196Z,13.27
2018-08-28T08:43:10.865Z,12.90
2018-08-28T08:45:38.626Z,12.83
2018-08-28T08:48:06.306Z,11.17
2018-08-28T08:50:34.029Z,10.30
2018-08-28T08:53:01.820Z,11.23
2018-08-28T08:55:29.499Z,11.77
2018-08-28T08:57:57.170Z,11.77
2018-08-28T09:00:24.953Z,9.20
2018-08-28T09:02:52.607Z,8.27
2018-08-28T09:05:20.732Z,8.10
2018-08-28T09:07:48.502Z,8.27
2018-08-28T09:10:16.208Z,8.33
2018-08-28T09:12:44.047Z,8.90
2018-08-28T09:15:11.710Z,9.03
2018-08-28T09:17:39.389Z,10.13
2018-08-28T09:20:07.370Z,8.03
2018-08-28T09:22:35.065Z,8.10
2018-08-28T09:25:02.837Z,6.33
2018-08-28T09:27:30.681Z,5.90
2018-08-28T09:29:58.377Z,7.00
2018-08-28T09:32:26.172Z,6.57
2018-08-28T09:34:53.980Z,6.60
2018-08-28T09:37:21.669Z,6.67
2018-08-28T09:39:49.350Z,6.07
2018-08-28T09:42:17.197Z,6.20
2018-08-28T09:44:44.874Z,5.70
2018-08-28T09:47:12.562Z,5.60
2018-08-28T09:49:40.481Z,5.33
2018-08-28T09:52:08.158Z,3.97
2018-08-28T09:54:36.775Z,3.53
2018-08-28T09:57:04.685Z,3.00
2018-08-28T09:59:32.373Z,2.83
2018-08-28T10:02:00.035Z,2.90
2018-08-28T10:04:28.022Z,2.73
2018-08-28T10:06:55.742Z,2.80
2018-08-28T10:09:23.427Z,3.07
2018-08-28T10:11:51.404Z,4.27
2018-08-28T10:14:19.088Z,8.03
2018-08-28T10:16:46.757Z,7.93
2018-08-28T10:19:14.710Z,5.37
2018-08-28T10:21:42.355Z,5.77
2018-08-28T10:24:10.026Z,5.43
2018-08-28T10:26:37.859Z,6.30
2018-08-28T10:29:05.632Z,5.67
2018-08-28T10:31:33.317Z,5.80
2018-08-28T10:34:01.218Z,5.23
2018-08-28T10:36:28.861Z,5.20
2018-08-28T10:38:56.522Z,4.33
2018-08-28T10:41:24.358Z,3.77
2018-08-28T10:43:52.017Z,3.63
2018-08-28T10:46:19.752Z,2.37
2018-08-28T10:48:47.643Z,2.17
2018-08-28T10:51:16.302Z,2.00
2018-08-28T10:53:43.956Z,2.10
2018-08-28T10:56:11.801Z,2.20
2018-08-28T10:58:39.499Z,1.33
2018-08-28T11:01:07.573Z,1.53
2018-08-28T11:03:35.385Z,1.97
2018-08-28T11:06:03.054Z,1.50
2018-08-28T11:08:30.737Z,1.77
2018-08-28T11:10:58.566Z,1.70
2018-08-28T11:13:26.220Z,1.70
2018-08-28T11:15:53.871Z,1.97
2018-08-28T11:18:21.694Z,2.13
2018-08-28T11:20:49.417Z,1.90
2018-08-28T11:23:17.076Z,2.17
2018-08-28T11:25:44.890Z,1.70
2018-08-28T11:28:12.588Z,1.80
2018-08-28T11:30:40.232Z,2.33
2018-08-28T11:33:08.083Z,1.60
2018-08-28T11:35:35.788Z,1.90
2018-08-28T11:38:03.444Z,2.03
2018-08-28T11:40:31.325Z,1.90
2018-08-28T11:42:58.974Z,1.80
2018-08-28T11:45:26.615Z,1.90
2018-08-28T11:47:54.435Z,1.20
2018-08-28T11:50:22.116Z,1.40
2018-08-28T11:52:49.758Z,1.40
2018-08-28T11:55:17.578Z,1.20
2018-08-28T11:57:45.240Z,1.20
2018-08-28T12:00:13.666Z,1.20
2018-08-28T12:02:41.516Z,1.40
2018-08-28T12:05:09.289Z,1.37
2018-08-28T12:07:36.886Z,1.80
2018-08-28T12:10:04.901Z,1.67
2018-08-28T12:12:32.545Z,1.60
2018-08-28T12:15:00.221Z,1.97
2018-08-28T12:17:28.066Z,2.10
2018-08-28T12:19:55.791Z,1.27
2018-08-28T12:22:23.485Z,1.37
2018-08-28T12:24:51.325Z,1.63
2018-08-28T12:27:19.022Z,1.40
2018-08-28T12:29:46.873Z,1.87
2018-08-28T12:32:14.632Z,1.90
2018-08-28T12:34:42.275Z,1.60
2018-08-28T12:37:10.002Z,1.57
2018-08-28T12:39:37.801Z,1.40
2018-08-28T12:42:05.475Z,1.30
2018-08-28T12:44:33.150Z,1.50
2018-08-28T12:47:00.930Z,1.10
2018-08-28T12:49:28.586Z,1.70
2018-08-28T12:51:56.265Z,1.63
2018-08-28T12:54:24.077Z,1.47
2018-08-28T12:56:51.737Z,1.20
2018-08-28T12:59:19.394Z,1.50
2018-08-28T13:01:47.213Z,2.07
2018-08-28T13:04:14.888Z,1.83
2018-08-28T13:06:42.588Z,1.23
2018-08-28T13:09:10.472Z,1.60
2018-08-28T13:11:39.194Z,1.73
2018-08-28T13:14:06.890Z,2.10
2018-08-28T13:16:34.713Z,1.80
2018-08-28T13:19:02.694Z,1.60
2018-08-28T13:21:30.372Z,1.20
2018-08-28T13:23:58.221Z,1.40
2018-08-28T13:26:25.925Z,1.10
2018-08-28T13:28:53.644Z,1.60
2018-08-28T13:31:21.641Z,1.47
2018-08-28T13:33:49.393Z,1.30
2018-08-28T13:36:17.116Z,1.03
2018-08-28T13:38:44.936Z,1.47
2018-08-28T13:41:12.610Z,1.63
2018-08-28T13:43:40.316Z,1.17
2018-08-28T13:46:08.136Z,1.23
2018-08-28T13:48:35.884Z,1.47
2018-08-28T13:51:03.574Z,1.07
2018-08-28T13:53:31.354Z,1.30
2018-08-28T13:55:59.029Z,1.47
2018-08-28T13:58:26.764Z,1.57
2018-08-28T14:00:54.624Z,1.20
2018-08-28T14:03:22.324Z,1.50
2018-08-28T14:05:49.994Z,1.17
2018-08-28T14:08:17.777Z,1.20
2018-08-28T14:10:45.445Z,1.90
2018-08-28T14:13:13.268Z,2.00
2018-08-28T14:15:40.929Z,1.60
2018-08-28T14:18:08.632Z,1.33
2018-08-28T14:20:36.328Z,1.60
2018-08-28T14:23:04.141Z,1.67
2018-08-28T14:25:31.820Z,1.43
2018-08-28T14:27:59.547Z,1.40
2018-08-28T14:30:27.352Z,1.27
2018-08-28T14:32:55.024Z,1.30
2018-08-28T14:35:22.725Z,1.57
2018-08-28T14:37:50.522Z,1.47
2018-08-28T14:40:18.186Z,1.53
2018-08-28T14:42:45.891Z,1.60
2018-08-28T14:45:13.690Z,1.70
2018-08-28T14:47:41.377Z,1.60
2018-08-28T14:50:09.170Z,1.20
2018-08-28T14:52:36.953Z,1.60
2018-08-28T14:55:04.724Z,1.33
2018-08-28T14:57:32.429Z,1.00
2018-08-28T15:00:00.233Z,1.07
2018-08-28T15:02:27.900Z,1.20
2018-08-28T15:04:55.596Z,1.80
2018-08-28T15:07:23.392Z,1.40
2018-08-28T15:09:51.078Z,1.20
2018-08-28T15:12:18.810Z,1.23
2018-08-28T15:14:46.610Z,1.10
2018-08-28T15:17:14.373Z,1.23
2018-08-28T15:19:42.059Z,1.40
2018-08-28T15:22:09.849Z,1.10
2018-08-28T15:24:37.531Z,1.27
2018-08-28T15:27:05.338Z,1.43
2018-08-28T15:29:33.127Z,1.20
2018-08-28T15:32:00.836Z,1.37
2018-08-28T15:34:28.536Z,1.80
2018-08-28T15:36:56.340Z,1.50
2018-08-28T15:39:24.010Z,1.70
2018-08-28T15:41:51.704Z,1.50
2018-08-28T15:44:19.685Z,1.57
2018-08-28T15:46:47.394Z,1.10
2018-08-28T15:49:15.071Z,1.60
2018-08-28T15:51:43.133Z,1.40
2018-08-28T15:54:10.772Z,1.57
2018-08-28T15:56:38.465Z,1.40
2018-08-28T15:59:06.548Z,1.60
2018-08-28T16:01:34.237Z,1.40
2018-08-28T16:04:01.921Z,0.87
2018-08-28T16:06:30.008Z,1.40
2018-08-28T16:08:57.720Z,1.27
2018-08-28T16:11:25.413Z,1.27
2018-08-28T16:13:53.211Z,1.43
2018-08-28T16:16:20.862Z,1.30
2018-08-28T16:18:48.565Z,1.20
2018-08-28T16:21:16.374Z,1.43
2018-08-28T16:23:45.897Z,1.60
2018-08-28T16:26:13.562Z,1.20
2018-08-28T16:28:41.428Z,1.50
2018-08-28T16:31:09.128Z,1.57
2018-08-28T16:33:36.790Z,1.63
2018-08-28T16:36:04.582Z,1.87
2018-08-28T16:38:32.249Z,1.83
2018-08-28T16:40:59.975Z,1.50
2018-08-28T16:43:27.882Z,1.50
2018-08-28T16:45:55.610Z,1.43
2018-08-28T16:48:23.370Z,1.67
2018-08-28T16:50:51.126Z,1.60
2018-08-28T16:53:18.835Z,1.43
2018-08-28T16:55:46.584Z,1.50
2018-08-28T16:58:14.406Z,2.07
2018-08-28T17:00:42.131Z,1.43
2018-08-28T17:03:09.807Z,1.50
2018-08-28T17:05:37.631Z,1.50
2018-08-28T17:08:05.314Z,1.40
2018-08-28T17:10:33.090Z,1.43
2018-08-28T17:13:00.946Z,1.60
2018-08-28T17:15:28.649Z,1.60
2018-08-28T17:17:56.872Z,1.70
2018-08-28T17:20:24.783Z,1.53
2018-08-28T17:22:52.449Z,1.50
2018-08-28T17:25:20.342Z,1.60
2018-08-28T17:27:48.197Z,1.40
2018-08-28T17:30:15.961Z,1.33
2018-08-28T17:32:43.656Z,1.67
2018-08-28T17:35:11.530Z,1.43
2018-08-28T17:37:39.222Z,1.87
2018-08-28T17:40:06.962Z,2.20
2018-08-28T17:42:34.866Z,2.73
2018-08-28T17:45:02.575Z,2.00
2018-08-28T17:47:30.250Z,1.47
2018-08-28T17:49:58.094Z,1.67
2018-08-28T17:52:25.830Z,1.70
2018-08-28T17:54:53.537Z,2.03
2018-08-28T17:57:21.351Z,1.70
2018-08-28T17:59:49.055Z,1.70
2018-08-28T18:02:16.820Z,1.80
2018-08-28T18:04:44.649Z,1.93
2018-08-28T18:07:12.367Z,1.33
2018-08-28T18:09:40.075Z,1.93
2018-08-28T18:12:07.901Z,1.87
2018-08-28T18:14:35.600Z,2.13
2018-08-28T18:17:03.305Z,2.23
2018-08-28T18:19:31.110Z,1.97
2018-08-28T18:21:58.830Z,2.27
2018-08-28T18:24:26.512Z,2.03
2018-08-28T18:26:54.352Z,2.30
2018-08-28T18:29:22.038Z,2.63
2018-08-28T18:31:49.726Z,2.33
2018-08-28T18:34:17.559Z,2.73
2018-08-28T18:36:45.340Z,3.03
2018-08-28T18:39:13.068Z,3.70
2018-08-28T18:41:40.936Z,3.83
2018-08-28T18:44:08.602Z,4.70
2018-08-28T18:46:36.332Z,6.67
2018-08-28T18:49:04.605Z,6.17
2018-08-28T18:51:32.317Z,5.57
2018-08-28T18:54:00.025Z,5.77
2018-08-28T18:56:27.878Z,6.43
2018-08-28T18:58:55.586Z,6.93
2018-08-28T19:01:23.289Z,6.57
2018-08-28T19:03:51.098Z,6.30
2018-08-28T19:06:18.826Z,6.70
2018-08-28T19:08:46.585Z,6.13
2018-08-28T19:11:14.435Z,6.33
2018-08-28T19:13:42.205Z,5.63
2018-08-28T19:16:09.913Z,6.43
2018-08-28T19:18:37.742Z,6.20
2018-08-28T19:21:05.495Z,5.50
2018-08-28T19:23:33.184Z,5.93
2018-08-28T19:26:01.036Z,6.20
2018-08-28T19:28:28.748Z,6.33
2018-08-28T19:30:56.440Z,6.67
2018-08-28T19:33:24.348Z,6.57
2018-08-28T19:35:52.060Z,7.77
2018-08-28T19:38:19.752Z,7.80
2018-08-28T19:40:47.625Z,6.30
2018-08-28T19:43:15.376Z,6.80
2018-08-28T19:45:43.520Z,4.97
2018-08-28T19:48:11.358Z,5.37
2018-08-28T19:50:39.075Z,5.47
2018-08-28T19:53:06.763Z,5.43
2018-08-28T19:55:34.606Z,5.60
2018-08-28T19:58:02.301Z,6.43
2018-08-28T20:00:30.019Z,6.03
2018-08-28T20:02:57.882Z,7.07
2018-08-28T20:05:25.561Z,6.60
2018-08-28T20:07:53.246Z,6.37
2018-08-28T20:10:21.106Z,6.63
2018-08-28T20:12:48.795Z,6.23
2018-08-28T20:15:16.478Z,5.70
2018-08-28T20:17:44.389Z,6.63
2018-08-28T20:20:12.161Z,5.80
2018-08-28T20:22:39.853Z,7.97
2018-08-28T20:25:07.770Z,7.23
2018-08-28T20:27:35.482Z,6.50
2018-08-28T20:30:03.274Z,6.40
2018-08-28T20:32:31.142Z,7.70
2018-08-28T20:34:58.965Z,7.27
2018-08-28T20:37:26.752Z,7.70
2018-08-28T20:39:54.733Z,7.73
2018-08-28T20:42:22.402Z,7.53
2018-08-28T20:44:50.246Z,8.33
2018-08-28T20:47:18.082Z,7.80
2018-08-28T20:49:45.782Z,7.50
2018-08-28T20:52:13.453Z,7.60
2018-08-28T20:54:41.284Z,7.90
2018-08-28T20:57:08.949Z,7.77
2018-08-28T20:59:36.627Z,8.27
2018-08-28T21:02:04.638Z,6.93
2018-08-28T21:04:32.274Z,7.27
2018-08-28T21:07:00.000Z,7.27
2018-08-28T21:09:27.698Z,7.83
2018-08-28T21:11:55.343Z,6.37
2018-08-28T21:14:22.955Z,6.60
2018-08-28T21:16:50.694Z,6.40
2018-08-28T21:19:18.711Z,6.20
2018-08-28T21:21:46.333Z,5.87
2018-08-28T21:24:14.100Z,5.80
2018-08-28T21:26:41.742Z,6.13
2018-08-28T21:29:09.385Z,5.57
2018-08-28T21:31:37.121Z,5.60
2018-08-28T21:34:04.847Z,4.53
2018-08-28T21:36:32.503Z,4.00
2018-08-28T21:39:00.231Z,4.00
2018-08-28T21:41:27.919Z,3.73
2018-08-28T21:43:55.543Z,3.97
2018-08-28T21:46:23.275Z,3.90
2018-08-28T21:48:50.921Z,4.67
2018-08-28T21:51:18.539Z,4.30
2018-08-28T21:53:46.308Z,4.40
2018-08-28T21:56:13.929Z,4.00
2018-08-28T21:58:41.574Z,3.87
2018-08-28T22:01:11.916Z,4.87
2018-08-28T22:03:40.727Z,4.00
2018-08-28T22:06:14.005Z,4.30
2018-08-28T22:08:41.726Z,3.80
2018-08-28T22:11:09.355Z,3.87
2018-08-28T22:13:37.684Z,3.83
2018-08-28T22:16:05.347Z,3.70
2018-08-28T22:18:32.992Z,3.67
2018-08-28T22:21:00.724Z,4.10
2018-08-28T22:23:28.411Z,3.47
2018-08-28T22:25:56.054Z,3.77
2018-08-28T22:28:23.786Z,3.60
2018-08-28T22:30:51.427Z,3.93
2018-08-28T22:33:19.059Z,3.77
2018-08-28T22:35:46.814Z,3.60
2018-08-28T22:38:14.491Z,3.17
2018-08-28T22:40:42.131Z,3.33
2018-08-28T22:43:09.882Z,3.17
2018-08-28T22:45:37.503Z,3.03
2018-08-28T22:48:05.487Z,3.67
2018-08-28T22:50:33.233Z,3.07
2018-08-28T22:53:00.863Z,3.40
2018-08-28T22:55:28.498Z,3.23
2018-08-28T22:57:56.283Z,3.40
2018-08-28T23:00:24.021Z,3.40
2018-08-28T23:02:53.517Z,3.40
2018-08-28T23:05:21.555Z,3.37
2018-08-28T23:07:49.502Z,3.60
2018-08-28T23:10:17.262Z,3.27
2018-08-28T23:12:45.025Z,3.37
2018-08-28T23:15:12.841Z,3.37
2018-08-28T23:17:40.607Z,2.87
2018-08-28T23:20:08.352Z,3.10
2018-08-28T23:22:36.088Z,3.33
2018-08-28T23:25:03.869Z,2.90
2018-08-28T23:27:31.762Z,3.10
2018-08-28T23:29:59.493Z,3.60
2018-08-28T23:32:27.251Z,3.23
2018-08-28T23:34:54.964Z,3.13
2018-08-28T23:37:22.682Z,3.43
2018-08-28T23:39:50.419Z,3.00
2018-08-28T23:42:18.170Z,3.90
2018-08-28T23:44:45.913Z,3.07
2018-08-28T23:47:13.652Z,3.03
2018-08-28T23:49:41.389Z,3.03
2018-08-28T23:52:09.116Z,3.33
2018-08-28T23:54:36.839Z,4.07
2018-08-28T23:57:04.598Z,4.33
2018-08-28T23:59:32.350Z,4.60
